Time;durP1;ratioP1;P1;durP2;ratioP2;P2;SDS_P1;SDS_P2;PMS_P1;PMS_P2;Temp;Humidity;BMP_temperature;BMP_pressure;BME280_temperature;BME280_humidity;BME280_pressure;Samples;Min_cycle;Max_cycle;Signal;HPM_P1;HPM_P2
2023/05/06 00:02:18;;;;;;;5.28;2.50;;;2.80;99.90;;;;;;4910202;29;20139;-80
2023/05/06 00:04:46;;;;;;;6.10;3.15;;;2.90;99.90;;;;;;4913340;29;20062;-80
2023/05/06 00:07:13;;;;;;;3.42;2.60;;;2.90;99.90;;;;;;4927875;29;20075;-79
2023/05/06 00:09:40;;;;;;;3.65;2.50;;;2.90;99.90;;;;;;4924308;29;20057;-79
2023/05/06 00:12:09;;;;;;;4.57;2.30;;;2.90;99.90;;;;;;4896231;29;20052;-79
2023/05/06 00:14:36;;;;;;;3.58;2.05;;;2.90;99.90;;;;;;4932335;29;20051;-81
2023/05/06 00:17:04;;;;;;;3.40;1.83;;;2.90;99.90;;;;;;4899863;29;20055;-80
2023/05/06 00:19:31;;;;;;;4.50;2.53;;;3.00;99.90;;;;;;4903484;29;20083;-80
2023/05/06 00:21:58;;;;;;;4.53;2.30;;;3.00;99.90;;;;;;4932008;29;20079;-81
2023/05/06 00:24:26;;;;;;;6.38;3.15;;;3.00;99.90;;;;;;4931376;29;20074;-79
2023/05/06 00:26:53;;;;;;;7.88;2.85;;;3.00;99.90;;;;;;4899739;29;20147;-80
2023/05/06 00:29:22;;;;;;;4.72;2.63;;;3.00;99.90;;;;;;4897333;29;20052;-79
2023/05/06 00:31:49;;;;;;;8.13;2.78;;;3.00;99.90;;;;;;4915509;29;20154;-79
2023/05/06 00:34:16;;;;;;;7.10;2.47;;;3.10;99.90;;;;;;4931400;29;20056;-74
2023/05/06 00:36:43;;;;;;;2.33;2.10;;;3.00;99.90;;;;;;4930295;29;20056;-73
2023/05/06 00:39:11;;;;;;;4.63;2.00;;;3.10;99.90;;;;;;4932752;29;20055;-74
2023/05/06 00:41:38;;;;;;;3.10;1.85;;;3.00;99.90;;;;;;4935096;29;20055;-74
2023/05/06 00:44:06;;;;;;;4.97;2.33;;;3.00;99.90;;;;;;4914779;29;20451;-73
2023/05/06 00:46:35;;;;;;;2.63;1.88;;;3.00;99.90;;;;;;4902028;29;20047;-73
2023/05/06 00:49:03;;;;;;;3.58;1.80;;;2.90;99.90;;;;;;4934158;29;20052;-74
2023/05/06 00:51:31;;;;;;;2.17;1.65;;;3.00;99.90;;;;;;4934974;29;20055;-74
2023/05/06 00:53:58;;;;;;;2.55;1.65;;;3.00;99.90;;;;;;4917965;29;20458;-74
2023/05/06 00:56:25;;;;;;;3.05;2.00;;;3.00;99.90;;;;;;4916121;29;20050;-73
2023/05/06 00:58:54;;;;;;;2.03;1.50;;;3.00;99.90;;;;;;4932948;29;20091;-74
2023/05/06 01:01:23;;;;;;;5.03;1.73;;;3.00;99.90;;;;;;4934724;29;20055;-74
2023/05/06 01:03:55;;;;;;;1.92;1.70;;;3.00;99.90;;;;;;4916878;29;20513;-74
2023/05/06 01:06:26;;;;;;;;;;;3.00;99.90;;;;;;4934647;29;20158;-74
2023/05/06 01:09:00;;;;;;;3.33;1.55;;;3.00;99.90;;;;;;4917752;29;20354;-74
2023/05/06 01:11:35;;;;;;;3.55;1.80;;;3.00;99.90;;;;;;4917096;29;20068;-74
2023/05/06 01:14:07;;;;;;;2.00;1.65;;;3.00;99.90;;;;;;4915806;29;20402;-74
2023/05/06 01:16:40;;;;;;;3.55;1.30;;;3.00;99.90;;;;;;4934183;29;20055;-74
2023/05/06 01:19:10;;;;;;;1.67;1.50;;;2.90;99.90;;;;;;4933396;29;20047;-73
2023/05/06 01:21:41;;;;;;;5.80;1.88;;;2.80;99.90;;;;;;4927276;29;20052;-74
2023/05/06 01:24:10;;;;;;;2.72;1.67;;;2.70;99.90;;;;;;4912141;29;20508;-74
2023/05/06 01:26:37;;;;;;;5.93;1.75;;;2.60;99.90;;;;;;4933488;29;20058;-75
2023/05/06 01:29:04;;;;;;;1.55;1.30;;;2.60;99.90;;;;;;4917641;29;20099;-74
2023/05/06 01:31:42;;;;;;;1.50;1.40;;;2.60;99.90;;;;;;4933782;29;20463;-75
2023/05/06 01:34:15;;;;;;;1.85;1.55;;;2.70;99.90;;;;;;4933828;29;20134;-76
2023/05/06 01:36:58;;;;;;;2.90;1.80;;;2.70;99.90;;;;;;4902509;29;20056;-74
2023/05/06 01:39:29;;;;;;;4.47;1.55;;;2.70;99.90;;;;;;4934463;29;20051;-73
2023/05/06 01:41:59;;;;;;;2.83;1.52;;;2.80;99.90;;;;;;4932165;29;20324;-73
2023/05/06 01:44:32;;;;;;;2.72;1.90;;;2.80;99.90;;;;;;4914495;29;20066;-74
2023/05/06 01:47:00;;;;;;;2.78;1.88;;;2.80;99.90;;;;;;4915717;29;20539;-73
2023/05/06 01:49:28;;;;;;;4.00;1.65;;;2.80;99.90;;;;;;4922382;29;20047;-74
2023/05/06 01:51:56;;;;;;;3.90;1.60;;;2.80;99.90;;;;;;4932622;29;20160;-74
2023/05/06 01:54:24;;;;;;;3.08;1.52;;;2.80;99.90;;;;;;4916178;29;20056;-73
2023/05/06 01:56:53;;;;;;;4.72;1.40;;;2.80;99.90;;;;;;4912902;29;20060;-74
2023/05/06 01:59:20;;;;;;;3.85;1.92;;;2.90;99.90;;;;;;4924671;29;20052;-74
2023/05/06 02:01:47;;;;;;;5.35;1.63;;;2.80;99.90;;;;;;4915077;29;20063;-74
2023/05/06 02:04:15;;;;;;;4.40;1.52;;;2.80;99.90;;;;;;4914920;29;20138;-74
2023/05/06 02:06:43;;;;;;;4.90;1.50;;;2.90;99.90;;;;;;4896881;29;20059;-74
2023/05/06 02:09:12;;;;;;;4.07;1.98;;;2.80;99.90;;;;;;4890957;29;20080;-74
2023/05/06 02:11:43;;;;;;;2.95;1.80;;;2.90;99.90;;;;;;4914434;29;20551;-74
2023/05/06 02:14:13;;;;;;;3.72;2.08;;;2.90;99.90;;;;;;4913534;29;20055;-73
2023/05/06 02:16:40;;;;;;;4.93;2.35;;;2.80;99.90;;;;;;4915952;29;20135;-73
2023/05/06 02:19:08;;;;;;;5.45;2.30;;;2.80;99.90;;;;;;4915221;29;20035;-80
2023/05/06 02:21:35;;;;;;;5.57;2.40;;;2.80;99.90;;;;;;4933246;29;20055;-78
2023/05/06 02:24:02;;;;;;;4.45;2.15;;;2.80;99.90;;;;;;4931644;29;20060;-80
2023/05/06 02:26:30;;;;;;;6.28;3.00;;;2.70;99.90;;;;;;4916069;29;20404;-80
2023/05/06 02:28:57;;;;;;;3.97;2.55;;;2.80;99.90;;;;;;4926633;29;20452;-80
2023/05/06 02:31:26;;;;;;;3.28;2.22;;;2.80;99.90;;;;;;4933771;29;20119;-81
2023/05/06 02:33:53;;;;;;;7.10;2.17;;;2.70;99.90;;;;;;4916231;29;20047;-80
2023/05/06 02:36:20;;;;;;;4.35;2.30;;;2.80;99.90;;;;;;4898937;29;20047;-80
2023/05/06 02:38:47;;;;;;;4.25;1.98;;;2.70;99.90;;;;;;4931632;29;20244;-81
2023/05/06 02:41:15;;;;;;;3.28;1.92;;;2.80;99.90;;;;;;4913359;29;20115;-81
2023/05/06 02:43:42;;;;;;;3.72;2.05;;;2.80;99.90;;;;;;4898041;29;20060;-80
2023/05/06 02:46:10;;;;;;;6.07;2.53;;;2.80;99.90;;;;;;4915535;29;20052;-79
2023/05/06 02:48:38;;;;;;;6.10;2.50;;;2.80;99.90;;;;;;4914948;29;20055;-79
2023/05/06 02:51:06;;;;;;;4.05;2.47;;;2.90;99.90;;;;;;4914478;29;20052;-80
2023/05/06 02:53:33;;;;;;;4.03;2.78;;;2.90;99.90;;;;;;4931800;29;20071;-74
2023/05/06 02:56:00;;;;;;;2.42;2.20;;;3.00;99.90;;;;;;4924876;29;20063;-73
2023/05/06 02:58:28;;;;;;;6.00;3.20;;;3.00;99.90;;;;;;4927792;29;20058;-75
2023/05/06 03:00:55;;;;;;;3.33;2.40;;;3.00;99.90;;;;;;4913998;29;20432;-73
2023/05/06 03:03:22;;;;;;;6.22;2.67;;;3.10;99.90;;;;;;4930650;29;20047;-73
2023/05/06 03:05:51;;;;;;;7.85;3.03;;;3.10;99.90;;;;;;4916520;29;20102;-80
2023/05/06 03:08:19;;;;;;;6.97;2.55;;;3.20;99.90;;;;;;4899449;29;20047;-78
2023/05/06 03:10:47;;;;;;;5.53;2.17;;;3.20;99.90;;;;;;4899649;29;20062;-79
2023/05/06 03:13:16;;;;;;;5.32;2.58;;;3.20;99.90;;;;;;4914541;29;20047;-80
2023/05/06 03:15:44;;;;;;;5.22;2.70;;;3.20;99.90;;;;;;4902690;29;20056;-80
2023/05/06 03:18:11;;;;;;;6.47;2.60;;;3.20;99.90;;;;;;4898762;29;20044;-80
2023/05/06 03:20:40;;;;;;;7.00;3.10;;;3.20;99.90;;;;;;4915066;29;20059;-80
2023/05/06 03:23:08;;;;;;;12.05;2.70;;;3.20;99.90;;;;;;4915167;29;20075;-81
2023/05/06 03:25:36;;;;;;;4.15;2.25;;;3.30;99.90;;;;;;4899972;29;20087;-80
2023/05/06 03:28:04;;;;;;;6.72;2.50;;;3.40;99.90;;;;;;4932301;29;20052;-81
2023/05/06 03:30:32;;;;;;;9.60;2.67;;;3.40;99.90;;;;;;4914202;29;20513;-80
2023/05/06 03:33:02;;;;;;;8.73;2.78;;;3.50;99.90;;;;;;4932792;29;20051;-80
2023/05/06 03:35:32;;;;;;;5.88;2.92;;;3.60;99.90;;;;;;4895985;29;20056;-80
2023/05/06 03:38:01;;;;;;;6.00;2.35;;;3.60;99.90;;;;;;4927448;29;20059;-81
2023/05/06 03:40:38;;;;;;;6.00;2.33;;;3.60;99.90;;;;;;4929179;29;20098;-79
2023/05/06 03:43:06;;;;;;;4.82;3.15;;;3.60;99.90;;;;;;4896015;29;20100;-80
2023/05/06 03:45:34;;;;;;;5.55;2.22;;;3.60;99.90;;;;;;4921242;29;20047;-79
2023/05/06 03:48:04;;;;;;;3.20;1.83;;;3.60;99.90;;;;;;4921944;29;20058;-79
2023/05/06 03:50:33;;;;;;;2.72;2.30;;;3.60;99.90;;;;;;4896919;29;20630;-81
2023/05/06 03:53:00;;;;;;;6.82;2.75;;;3.70;99.90;;;;;;4896181;29;20107;-81
2023/05/06 03:55:30;;;;;;;2.50;2.30;;;3.70;99.90;;;;;;4896873;29;20062;-80
2023/05/06 03:57:59;;;;;;;4.18;2.22;;;3.70;99.90;;;;;;4902128;29;20068;-78
2023/05/06 04:00:27;;;;;;;9.13;2.20;;;3.70;99.90;;;;;;4910108;29;20504;-80
2023/05/06 04:02:55;;;;;;;3.92;1.90;;;3.70;99.90;;;;;;4898577;29;20158;-82
2023/05/06 04:05:29;;;;;;;4.00;2.00;;;3.60;99.90;;;;;;4929041;29;20458;-80
2023/05/06 04:07:58;;;;;;;5.15;1.83;;;3.60;99.90;;;;;;4909094;29;20885;-81
2023/05/06 04:10:25;;;;;;;3.38;1.73;;;3.50;99.90;;;;;;4914146;29;20051;-79
2023/05/06 04:12:59;;;;;;;3.70;2.40;;;3.40;99.90;;;;;;4912332;29;20500;-73
2023/05/06 04:15:33;;;;;;;4.57;2.90;;;3.40;99.90;;;;;;4913356;29;20063;-74
2023/05/06 04:18:02;;;;;;;2.20;2.00;;;3.40;99.90;;;;;;4918295;29;20603;-75
2023/05/06 04:20:29;;;;;;;8.45;3.55;;;3.40;99.90;;;;;;4916662;29;20071;-73
2023/05/06 04:22:57;;;;;;;3.92;2.33;;;3.40;99.90;;;;;;4884739;29;20083;-73
2023/05/06 04:25:24;;;;;;;7.13;2.35;;;3.40;99.90;;;;;;4932677;29;20051;-73
2023/05/06 04:27:52;;;;;;;3.92;2.15;;;3.40;99.90;;;;;;4934100;29;20079;-73
2023/05/06 04:30:21;;;;;;;9.18;2.25;;;3.40;99.90;;;;;;4934591;29;20044;-75
2023/05/06 04:32:49;;;;;;;8.20;2.58;;;3.50;99.90;;;;;;4914287;29;20504;-76
2023/05/06 04:35:17;;;;;;;8.75;2.60;;;3.50;99.90;;;;;;4898145;29;20075;-74
2023/05/06 04:37:45;;;;;;;4.78;2.20;;;3.50;99.90;;;;;;4917697;29;20047;-74
2023/05/06 04:40:19;;;;;;;6.25;2.60;;;3.60;99.90;;;;;;4933504;29;20048;-74
2023/05/06 04:42:50;;;;;;;8.15;2.88;;;3.60;99.90;;;;;;4917626;29;20075;-73
2023/05/06 04:45:23;;;;;;;3.95;2.42;;;3.70;99.90;;;;;;4914143;29;20154;-74
2023/05/06 04:47:52;;;;;;;6.05;2.50;;;3.70;99.90;;;;;;4908986;29;20131;-72
2023/05/06 04:50:20;;;;;;;5.75;2.55;;;3.70;99.90;;;;;;4915697;29;20052;-73
2023/05/06 04:52:48;;;;;;;7.10;2.22;;;3.80;99.90;;;;;;4912323;29;20058;-73
2023/05/06 04:55:17;;;;;;;3.67;2.30;;;3.80;99.90;;;;;;4914673;29;20623;-73
2023/05/06 04:57:50;;;;;;;7.80;1.88;;;3.90;99.90;;;;;;4939860;29;20052;-73
2023/05/06 05:00:18;;;;;;;2.08;1.50;;;3.90;99.90;;;;;;4933085;29;20055;-73
2023/05/06 05:02:47;;;;;;;4.03;1.40;;;4.00;99.90;;;;;;4932795;29;20056;-74
2023/05/06 05:05:19;;;;;;;6.97;5.40;;;4.00;99.90;;;;;;4934600;29;20126;-72
2023/05/06 05:07:51;;;;;;;1.70;1.55;;;4.00;99.90;;;;;;4924821;29;20086;-74
2023/05/06 05:10:19;;;;;;;2.08;1.92;;;4.10;99.90;;;;;;4915696;29;20047;-73
2023/05/06 05:12:48;;;;;;;2.47;1.40;;;4.30;99.90;;;;;;4914772;29;20048;-73
2023/05/06 05:15:15;;;;;;;3.70;1.40;;;4.30;99.90;;;;;;4907119;29;20044;-74
2023/05/06 05:17:44;;;;;;;2.85;1.60;;;4.40;99.40;;;;;;4937663;29;20056;-74
2023/05/06 05:20:13;;;;;;;2.20;1.83;;;4.60;98.70;;;;;;4916749;29;20437;-73
2023/05/06 05:22:40;;;;;;;1.40;1.30;;;5.10;98.80;;;;;;4933856;29;20047;-72
2023/05/06 05:25:08;;;;;;;3.58;1.92;;;5.70;97.90;;;;;;4893448;29;20517;-79
2023/05/06 05:27:36;;;;;;;2.00;1.23;;;6.20;95.40;;;;;;4904729;29;20048;-79
2023/05/06 05:30:03;;;;;;;4.05;1.77;;;6.70;93.40;;;;;;4933864;29;20067;-78
2023/05/06 05:32:33;;;;;;;2.05;1.50;;;7.20;92.00;;;;;;4902383;29;20107;-78
2023/05/06 05:35:01;;;;;;;3.03;1.90;;;7.60;89.40;;;;;;4918566;29;20099;-81
2023/05/06 05:37:31;;;;;;;2.95;1.20;;;8.10;87.10;;;;;;4917071;29;20055;-80
2023/05/06 05:39:59;;;;;;;1.52;1.42;;;8.60;82.10;;;;;;4932598;29;20051;-80
2023/05/06 05:42:29;;;;;;;1.50;1.40;;;9.00;79.50;;;;;;4917240;29;20103;-79
2023/05/06 05:44:57;;;;;;;6.18;1.08;;;9.40;76.40;;;;;;4930275;29;20071;-77
2023/05/06 05:47:25;;;;;;;8.68;1.70;;;9.70;73.30;;;;;;4914990;29;20040;-79
2023/05/06 05:49:53;;;;;;;1.70;1.60;;;10.20;73.40;;;;;;4914956;29;20142;-80
2023/05/06 05:52:21;;;;;;;4.30;2.22;;;10.40;70.00;;;;;;4932038;29;20047;-80
2023/05/06 05:54:50;;;;;;;1.58;1.30;;;10.40;67.80;;;;;;4917644;29;20047;-78
2023/05/06 05:57:18;;;;;;;3.38;1.90;;;10.50;67.50;;;;;;4914505;29;20055;-80
2023/05/06 05:59:48;;;;;;;2.22;1.50;;;10.80;65.50;;;;;;4917413;29;20051;-80
2023/05/06 06:02:16;;;;;;;2.22;1.42;;;11.30;63.20;;;;;;4907052;29;20570;-80
2023/05/06 06:04:43;;;;;;;2.83;1.75;;;11.20;61.50;;;;;;4889014;29;20051;-79
2023/05/06 06:07:11;;;;;;;14.57;3.42;;;10.60;61.90;;;;;;4933652;29;20094;-79
2023/05/06 06:09:45;;;;;;;5.00;1.48;;;10.40;63.40;;;;;;4902231;29;20048;-73
2023/05/06 06:12:16;;;;;;;3.42;1.23;;;10.50;61.70;;;;;;4933524;29;20520;-80
2023/05/06 06:14:47;;;;;;;6.40;1.23;;;10.30;61.80;;;;;;4916098;29;20067;-80
2023/05/06 06:17:17;;;;;;;4.25;1.08;;;10.70;61.90;;;;;;4918426;29;20052;-78
2023/05/06 06:19:46;;;;;;;1.27;1.10;;;11.30;60.10;;;;;;4902244;29;20048;-79
2023/05/06 06:22:14;;;;;;;2.03;1.30;;;11.90;57.40;;;;;;4902299;29;20189;-80
2023/05/06 06:24:41;;;;;;;5.60;1.52;;;12.00;57.00;;;;;;4934541;29;20047;-78
2023/05/06 06:27:09;;;;;;;2.25;0.90;;;11.60;56.20;;;;;;4930964;29;20051;-80
2023/05/06 06:29:38;;;;;;;1.02;0.85;;;10.90;56.30;;;;;;4903792;29;20158;-80
2023/05/06 06:32:06;;;;;;;5.32;0.90;;;10.30;55.60;;;;;;4905382;29;20055;-79
2023/05/06 06:34:33;;;;;;;2.40;0.82;;;9.80;55.60;;;;;;4932735;29;20051;-76
2023/05/06 06:37:01;;;;;;;5.47;1.15;;;9.40;55.60;;;;;;4889489;29;20437;-77
2023/05/06 06:39:29;;;;;;;3.67;0.93;;;9.10;56.70;;;;;;4908488;29;20527;-79
2023/05/06 06:41:57;;;;;;;5.00;1.27;;;8.70;57.30;;;;;;4923286;29;20048;-79
2023/05/06 06:44:24;;;;;;;2.22;1.00;;;8.40;57.50;;;;;;4921034;29;20408;-78
2023/05/06 06:46:53;;;;;;;2.15;1.33;;;8.10;57.00;;;;;;4909225;29;20050;-77
2023/05/06 06:49:20;;;;;;;1.52;0.90;;;7.80;58.40;;;;;;4905827;29;20509;-79
2023/05/06 06:51:51;;;;;;;2.42;0.90;;;7.70;58.60;;;;;;4911887;29;20055;-79
2023/05/06 06:54:18;;;;;;;2.28;1.00;;;7.70;59.00;;;;;;4928529;29;20079;-79
2023/05/06 06:56:45;;;;;;;2.75;1.17;;;7.80;58.60;;;;;;4911979;29;20139;-79
2023/05/06 06:59:13;;;;;;;3.78;1.10;;;7.80;60.40;;;;;;4912540;29;20056;-75
2023/05/06 07:01:41;;;;;;;0.85;0.85;;;8.00;62.20;;;;;;4910963;29;20055;-77
2023/05/06 07:04:10;;;;;;;3.55;1.10;;;8.60;61.10;;;;;;4922322;29;20118;-77
2023/05/06 07:06:37;;;;;;;1.42;1.17;;;9.00;58.70;;;;;;4927927;29;20052;-75
2023/05/06 07:09:05;;;;;;;1.30;0.90;;;9.10;58.20;;;;;;4926130;29;20051;-76
2023/05/06 07:11:32;;;;;;;4.45;1.05;;;9.20;58.20;;;;;;4892096;29;20068;-78
2023/05/06 07:13:59;;;;;;;1.40;1.10;;;9.30;57.90;;;;;;4893481;29;20054;-77
2023/05/06 07:16:27;;;;;;;2.60;1.27;;;9.30;58.70;;;;;;4926378;29;20047;-78
2023/05/06 07:18:55;;;;;;;2.55;1.27;;;9.30;59.70;;;;;;4912599;29;20048;-73
2023/05/06 07:21:25;;;;;;;1.20;1.10;;;9.20;59.00;;;;;;4925992;29;20533;-72
2023/05/06 07:23:53;;;;;;;2.30;1.08;;;9.10;59.90;;;;;;4904553;29;20048;-71
2023/05/06 07:26:22;;;;;;;1.02;0.95;;;9.00;59.60;;;;;;4923317;29;20086;-71
2023/05/06 07:28:50;;;;;;;4.00;1.20;;;8.80;59.70;;;;;;4917272;29;20090;-72
2023/05/06 07:31:19;;;;;;;2.75;0.90;;;8.90;59.90;;;;;;4924463;29;20155;-73
2023/05/06 07:33:50;;;;;;;1.45;1.20;;;9.30;59.70;;;;;;4904139;29;20051;-78
2023/05/06 07:36:18;;;;;;;1.17;0.75;;;9.50;59.70;;;;;;4896174;29;20083;-72
2023/05/06 07:38:46;;;;;;;4.68;0.90;;;9.80;59.50;;;;;;4919937;29;20058;-73
2023/05/06 07:41:14;;;;;;;2.85;1.02;;;9.70;58.50;;;;;;4906934;29;20130;-80
2023/05/06 07:43:43;;;;;;;3.90;0.95;;;9.50;57.80;;;;;;4895644;29;20450;-79
2023/05/06 07:46:11;;;;;;;2.75;1.10;;;9.40;58.00;;;;;;4922669;29;20139;-75
2023/05/06 07:48:38;;;;;;;2.28;1.20;;;9.20;57.80;;;;;;4906386;29;20050;-73
2023/05/06 07:51:06;;;;;;;2.72;1.23;;;9.10;58.90;;;;;;4905058;29;20052;-74
2023/05/06 07:53:34;;;;;;;2.28;0.90;;;9.00;59.80;;;;;;4890677;29;20074;-74
2023/05/06 07:56:03;;;;;;;1.85;0.80;;;9.10;59.50;;;;;;4923328;29;20066;-74
2023/05/06 07:58:31;;;;;;;1.70;0.80;;;9.10;58.90;;;;;;4924839;29;20052;-75
2023/05/06 08:00:58;;;;;;;1.35;1.17;;;10.00;59.00;;;;;;4907637;29;20108;-74
2023/05/06 08:03:26;;;;;;;1.05;1.00;;;11.20;58.60;;;;;;4905992;29;20050;-74
2023/05/06 08:05:54;;;;;;;1.85;1.20;;;12.20;56.70;;;;;;4891040;29;20428;-75
2023/05/06 08:08:22;;;;;;;2.13;1.10;;;12.90;54.00;;;;;;4923010;29;20074;-74
2023/05/06 08:10:49;;;;;;;3.95;1.23;;;14.20;52.10;;;;;;4920446;29;20067;-74
2023/05/06 08:13:18;;;;;;;1.33;1.23;;;15.60;50.70;;;;;;4922936;29;20442;-76
2023/05/06 08:15:45;;;;;;;3.35;1.30;;;16.10;48.20;;;;;;4914311;29;20047;-72
2023/05/06 08:18:12;;;;;;;4.18;1.17;;;16.70;48.30;;;;;;4933578;29;20505;-73
2023/05/06 08:20:40;;;;;;;4.07;1.50;;;17.30;46.90;;;;;;4921181;29;20059;-77
2023/05/06 08:23:07;;;;;;;5.05;1.95;;;17.90;46.10;;;;;;4932498;29;20106;-80
2023/05/06 08:25:34;;;;;;;2.53;1.25;;;18.50;45.40;;;;;;4925877;29;20044;-78
2023/05/06 08:28:02;;;;;;;4.95;1.48;;;19.00;44.00;;;;;;4915442;29;20055;-78
2023/05/06 08:30:32;;;;;;;7.22;1.70;;;19.30;43.40;;;;;;4926679;29;20138;-78
2023/05/06 08:32:59;;;;;;;1.70;0.88;;;19.60;41.90;;;;;;4925331;29;20058;-77
2023/05/06 08:35:26;;;;;;;7.28;2.00;;;19.50;40.80;;;;;;4910726;29;20051;-79
2023/05/06 08:37:54;;;;;;;3.20;1.33;;;19.50;41.30;;;;;;4929850;29;20104;-73
2023/05/06 08:40:23;;;;;;;2.25;0.75;;;19.90;41.10;;;;;;4919676;29;20051;-74
2023/05/06 08:42:56;;;;;;;2.28;1.00;;;20.20;41.00;;;;;;4915717;29;20463;-79
2023/05/06 08:45:26;;;;;;;1.40;1.08;;;20.40;39.80;;;;;;4929898;29;20134;-79
2023/05/06 08:47:55;;;;;;;1.20;1.00;;;20.70;39.60;;;;;;4905255;29;20063;-79
2023/05/06 08:50:22;;;;;;;3.13;1.00;;;20.90;38.80;;;;;;4916098;29;20047;-78
2023/05/06 08:52:51;;;;;;;1.92;1.30;;;21.10;38.40;;;;;;4919456;29;20051;-78
2023/05/06 08:55:19;;;;;;;4.15;1.15;;;21.20;38.30;;;;;;4930065;29;20056;-73
2023/05/06 08:57:49;;;;;;;1.48;0.73;;;20.30;38.70;;;;;;4925357;29;20429;-72
2023/05/06 09:00:17;;;;;;;1.33;0.98;;;18.60;39.80;;;;;;4914705;29;20051;-71
2023/05/06 09:02:47;;;;;;;3.53;1.02;;;17.10;41.00;;;;;;4930557;29;20047;-75
2023/05/06 09:05:16;;;;;;;2.13;1.50;;;16.70;44.00;;;;;;4901605;29;20066;-72
2023/05/06 09:07:43;;;;;;;2.70;1.85;;;17.40;44.40;;;;;;4916819;29;20107;-73
2023/05/06 09:10:13;;;;;;;3.92;1.55;;;17.40;43.30;;;;;;4932358;29;20147;-72
2023/05/06 09:12:41;;;;;;;1.80;0.95;;;16.70;43.10;;;;;;4923818;29;20580;-74
2023/05/06 09:15:10;;;;;;;5.22;1.38;;;17.30;44.20;;;;;;4927836;29;20244;-74
2023/05/06 09:17:37;;;;;;;1.77;1.00;;;18.70;41.60;;;;;;4916354;29;20556;-75
2023/05/06 09:20:07;;;;;;;2.55;1.17;;;;;;;;;;4919296;29;20061;-73
2023/05/06 09:22:39;;;;;;;1.40;1.00;;;20.70;37.60;;;;;;4936387;29;20048;-72
2023/05/06 09:25:08;;;;;;;2.00;1.05;;;19.70;38.20;;;;;;4920108;29;20135;-73
2023/05/06 09:27:36;;;;;;;3.22;1.20;;;18.20;39.20;;;;;;4917468;29;20575;-72
2023/05/06 09:30:04;;;;;;;3.65;1.20;;;16.70;42.10;;;;;;4936622;29;20592;-73
2023/05/06 09:32:41;;;;;;;3.65;1.15;;;15.40;42.30;;;;;;4930526;29;20059;-73
2023/05/06 09:35:10;;;;;;;1.73;1.20;;;14.50;42.80;;;;;;4918484;29;20067;-73
2023/05/06 09:37:39;;;;;;;2.63;1.40;;;14.40;45.20;;;;;;4909705;29;20505;-72
2023/05/06 09:40:09;;;;;;;3.03;1.08;;;15.90;43.50;;;;;;4930974;29;20067;-74
2023/05/06 09:42:36;;;;;;;5.80;1.40;;;17.20;42.40;;;;;;4932126;29;20048;-79
2023/05/06 09:45:09;;;;;;;3.65;0.98;;;18.20;40.50;;;;;;4907754;29;20052;-78
2023/05/06 09:47:37;;;;;;;1.50;1.10;;;18.20;38.80;;;;;;4933319;29;20063;-78
2023/05/06 09:50:05;;;;;;;2.38;1.40;;;17.20;40.50;;;;;;4936404;29;20453;-73
2023/05/06 09:52:34;;;;;;;2.70;1.20;;;16.50;41.20;;;;;;4927258;29;20247;-73
2023/05/06 09:55:04;;;;;;;2.80;0.95;;;16.20;41.40;;;;;;4930890;29;20079;-73
2023/05/06 09:57:33;;;;;;;3.20;1.08;;;16.30;42.10;;;;;;4917545;29;20097;-72
2023/05/06 10:00:03;;;;;;;3.35;1.60;;;16.90;42.20;;;;;;4913896;29;20047;-71
2023/05/06 10:02:41;;;;;;;7.15;1.13;;;17.20;40.30;;;;;;4917300;29;20044;-74
2023/05/06 10:05:10;;;;;;;1.58;1.08;;;18.80;39.70;;;;;;4928194;29;20433;-75
2023/05/06 10:07:38;;;;;;;3.67;1.00;;;20.10;37.30;;;;;;4917749;29;20107;-75
2023/05/06 10:10:10;;;;;;;4.78;1.45;;;21.10;37.30;;;;;;4917636;29;20060;-73
2023/05/06 10:12:38;;;;;;;5.13;1.38;;;21.80;35.80;;;;;;4917523;29;20047;-74
2023/05/06 10:15:07;;;;;;;4.95;1.10;;;22.20;35.80;;;;;;4901076;29;20074;-75
2023/05/06 10:17:40;;;;;;;3.08;0.90;;;21.10;35.70;;;;;;4905694;29;20047;-74
2023/05/06 10:20:12;;;;;;;3.30;1.30;;;21.20;36.20;;;;;;4902874;29;20052;-74
2023/05/06 10:22:50;;;;;;;1.30;1.20;;;22.00;36.80;;;;;;4934414;29;20068;-73
2023/05/06 10:25:27;;;;;;;5.57;1.35;;;22.80;34.10;;;;;;4933914;29;20047;-73
2023/05/06 10:27:55;;;;;;;4.10;1.17;;;23.30;34.10;;;;;;4933855;29;20535;-73
2023/05/06 10:30:23;;;;;;;4.43;1.52;;;23.60;32.80;;;;;;4932724;29;20399;-74
2023/05/06 10:32:55;;;;;;;2.90;1.10;;;24.00;34.50;;;;;;4928029;29;20059;-78
2023/05/06 10:35:31;;;;;;;1.00;1.00;;;24.10;33.20;;;;;;4932739;29;20051;-77
2023/05/06 10:38:02;;;;;;;3.63;1.23;;;24.00;33.10;;;;;;4917716;29;20107;-78
2023/05/06 10:40:31;;;;;;;2.53;1.00;;;23.50;33.30;;;;;;4917183;29;20052;-77
2023/05/06 10:43:20;;;;;;;1.40;1.30;;;23.80;32.60;;;;;;4934832;29;20078;-78
2023/05/06 10:46:05;;;;;;;7.68;1.20;;;23.50;32.20;;;;;;4913297;29;20052;-78
2023/05/06 10:48:33;;;;;;;7.50;1.02;;;23.40;32.60;;;;;;4932447;29;20142;-76
2023/05/06 10:51:23;;;;;;;4.55;1.00;;;24.00;33.40;;;;;;4917627;29;20079;-77
2023/05/06 10:53:59;;;;;;;2.75;1.30;;;24.40;31.70;;;;;;4928175;29;20060;-77
2023/05/06 10:56:29;;;;;;;2.85;1.13;;;23.80;31.00;;;;;;4932857;29;20048;-77
2023/05/06 10:58:58;;;;;;;1.35;0.85;;;22.00;32.30;;;;;;4927800;29;20480;-75
2023/05/06 11:01:27;;;;;;;1.27;0.75;;;20.20;34.00;;;;;;4910035;29;20043;-75
2023/05/06 11:03:54;;;;;;;1.60;0.98;;;18.50;35.90;;;;;;4922827;29;20052;-73
2023/05/06 11:06:39;;;;;;;2.78;0.90;;;17.10;36.80;;;;;;4932083;29;20055;-75
2023/05/06 11:09:15;;;;;;;1.85;1.23;;;16.20;39.10;;;;;;4926721;29;20051;-77
2023/05/06 11:12:11;;;;;;;2.63;1.20;;;16.60;40.50;;;;;;4907590;29;20453;-78
2023/05/06 11:14:39;;;;;;;2.47;1.05;;;17.80;38.10;;;;;;4859108;29;20051;-73
2023/05/06 11:17:09;;;;;;;1.75;0.80;;;17.70;38.50;;;;;;4915291;29;20055;-73
2023/05/06 11:19:38;;;;;;;1.05;0.95;;;17.30;39.10;;;;;;4914930;29;20044;-73
2023/05/06 11:22:07;;;;;;;1.85;1.05;;;17.60;39.70;;;;;;4929143;29;20040;-75
2023/05/06 11:24:44;;;;;;;1.65;1.15;;;17.90;37.20;;;;;;4913052;29;20071;-74
2023/05/06 11:27:18;;;;;;;1.08;0.98;;;18.20;37.90;;;;;;4930760;29;20071;-74
2023/05/06 11:29:45;;;;;;;8.07;1.50;;;17.80;37.00;;;;;;4916082;29;20515;-78
2023/05/06 11:32:22;;;;;;;3.20;0.82;;;17.20;38.90;;;;;;4933231;29;20645;-75
2023/05/06 11:34:54;;;;;;;1.33;1.02;;;16.40;39.30;;;;;;4897022;29;20051;-79
2023/05/06 11:37:25;;;;;;;2.17;1.27;;;15.80;41.00;;;;;;4897418;29;20126;-80
2023/05/06 11:39:53;;;;;;;0.90;0.90;;;15.30;41.40;;;;;;4913950;29;20086;-79
2023/05/06 11:42:27;;;;;;;4.65;1.52;;;14.80;41.60;;;;;;4916033;29;20142;-81
2023/05/06 11:44:55;;;;;;;8.38;1.85;;;14.10;41.20;;;;;;4928224;29;20065;-79
2023/05/06 11:47:23;;;;;;;3.22;0.95;;;13.70;42.80;;;;;;4900086;29;20444;-80
2023/05/06 11:49:53;;;;;;;5.55;1.10;;;13.30;44.10;;;;;;4923506;29;20047;-80
2023/05/06 11:52:21;;;;;;;4.72;1.35;;;13.20;45.80;;;;;;4927600;29;20033;-80
2023/05/06 11:54:52;;;;;;;2.50;1.42;;;13.00;44.40;;;;;;4928037;29;20044;-79
2023/05/06 11:57:20;;;;;;;1.35;1.25;;;12.70;44.00;;;;;;4909643;29;20071;-80
2023/05/06 11:59:54;;;;;;;4.32;1.05;;;12.50;44.90;;;;;;4912691;29;20063;-81
2023/05/06 12:02:21;;;;;;;5.68;1.30;;;12.40;45.70;;;;;;4915870;29;20048;-78
2023/05/06 12:04:50;;;;;;;3.53;1.52;;;12.20;43.90;;;;;;4913153;29;20044;-81
2023/05/06 12:07:17;;;;;;;9.98;1.65;;;12.10;45.70;;;;;;4897411;29;20437;-80
2023/05/06 12:09:47;;;;;;;1.33;1.25;;;12.10;45.40;;;;;;4929655;29;20043;-80
2023/05/06 12:12:17;;;;;;;1.63;1.35;;;12.00;46.10;;;;;;4932294;29;20469;-80
2023/05/06 12:14:45;;;;;;;4.70;1.33;;;12.00;46.30;;;;;;4933058;29;20106;-80
2023/05/06 12:17:15;;;;;;;2.92;1.33;;;12.00;46.60;;;;;;4900536;29;20099;-80
2023/05/06 12:19:42;;;;;;;3.90;1.50;;;12.00;47.50;;;;;;4920195;29;20086;-80
2023/05/06 12:22:20;;;;;;;2.85;1.40;;;11.90;46.90;;;;;;4933149;29;20059;-80
2023/05/06 12:24:48;;;;;;;9.77;1.60;;;11.90;47.00;;;;;;4933821;29;20051;-79
2023/05/06 12:27:29;;;;;;;3.80;1.65;;;11.90;47.80;;;;;;4931547;29;20080;-79
2023/05/06 12:29:57;;;;;;;3.13;1.52;;;12.00;48.40;;;;;;4926484;29;20056;-79
2023/05/06 12:32:26;;;;;;;3.28;1.42;;;12.00;48.60;;;;;;4914651;29;20047;-79
2023/05/06 12:34:53;;;;;;;4.90;1.65;;;12.10;48.30;;;;;;4919322;29;20051;-78
2023/05/06 12:37:30;;;;;;;1.75;1.63;;;12.00;47.20;;;;;;4915177;29;20142;-77
2023/05/06 12:39:59;;;;;;;2.50;1.65;;;11.90;47.40;;;;;;4917137;29;20118;-79
2023/05/06 12:42:27;;;;;;;8.85;1.60;;;12.00;48.60;;;;;;4935742;29;20138;-79
2023/05/06 12:44:54;;;;;;;4.18;1.40;;;12.20;47.30;;;;;;4934129;29;20142;-80
2023/05/06 12:47:23;;;;;;;2.97;1.13;;;12.40;47.40;;;;;;4935437;29;20484;-78
2023/05/06 12:49:53;;;;;;;2.50;1.20;;;12.70;46.30;;;;;;4903458;29;20155;-78
2023/05/06 12:52:22;;;;;;;3.28;1.77;;;13.10;45.70;;;;;;4931944;29;20160;-80
2023/05/06 12:54:50;;;;;;;2.45;1.67;;;13.50;45.20;;;;;;4935985;29;20052;-80
2023/05/06 12:57:18;;;;;;;7.15;1.40;;;13.80;45.30;;;;;;4935794;29;20036;-79
2023/05/06 12:59:46;;;;;;;3.13;0.93;;;13.70;44.50;;;;;;4919242;29;20472;-78
2023/05/06 13:02:14;;;;;;;3.25;1.95;;;13.30;44.10;;;;;;4925711;29;20048;-82
2023/05/06 13:04:41;;;;;;;4.05;2.72;;;12.60;44.70;;;;;;4920544;29;20047;-78